PAYA Airport Information

Runway Information
Runway 02 Length 6475 ft width 150 ft
Elevation 18 ft Threshold 0 ft Heading 45
Runway 20 Length 6475 ft Width 150 ft
Elevation 30 ft Threshold 0 ft Heading 225
Runway 11 Length 7745 ft width 150 ft
Elevation 32 ft Threshold 0 ft Heading 135
Runway 29 Length 7745 ft Width 150 ft
Elevation 19 ft Threshold 0 ft Heading 315
Airport Frequencies
Airport Navaids
Type NDB Name Ocean Cape Frequency 385 KHZ
Type VOR-DME Name Yakutat Frequency 113300 KHZ
Airport Weather Information & NOTAM
ADDS - METARS form results

(1356 UTC 25 May 2019)
Data provider http://aviationweather.gov/metar/data/
 
METAR text: PAYA 251353Z AUTO 00000KT 3/4SM BR VV002 03/03 A3020 RMK AO2 SLP227 T00280028 TSNO RVRNO
Conditions at: PAYA (YAKUTAT , AK, US) observed 1353 UTC 25 May 2019
Temperature: 2.8°C (37°F)
Dewpoint: 2.8°C (37°F) [RH = 100%]
Pressure (altimeter): 30.20 inches Hg (1022.8 mb)
[Sea-level pressure: 1022.7 mb]
Winds: calm
Visibility: 0.75 miles (1.21 km)
Ceiling: indefinite ceiling with vertical visibility of 200 feet AGL
Clouds: obscured sky
Weather: BR  (mist)

METAR text: PAYA 251343Z AUTO 00000KT 3/4SM BR VV002 03/03 A3021 RMK AO2 T00280028 TSNO RVRNO
Conditions at: PAYA (YAKUTAT , AK, US) observed 1343 UTC 25 May 2019
Temperature: 2.8°C (37°F)
Dewpoint: 2.8°C (37°F) [RH = 100%]
Pressure (altimeter): 30.21 inches Hg (1023.1 mb)
Winds: calm
Visibility: 0.75 miles (1.21 km)
Ceiling: indefinite ceiling with vertical visibility of 200 feet AGL
Clouds: obscured sky
Weather: BR  (mist)

METAR text: PAYA 251331Z AUTO 00000KT 1/4SM FG VV002 02/02 A3021 RMK AO2 T00220022 TSNO RVRNO
Conditions at: PAYA (YAKUTAT , AK, US) observed 1331 UTC 25 May 2019
Temperature: 2.2°C (36°F)
Dewpoint: 2.2°C (36°F) [RH = 100%]
Pressure (altimeter): 30.21 inches Hg (1023.1 mb)
Winds: calm
Visibility: 0.25 miles (0.40 km)
Ceiling: indefinite ceiling with vertical visibility of 200 feet AGL
Clouds: obscured sky
Weather: FG  (fog)

METAR text: PAYA 251316Z AUTO 00000KT 3/4SM BR VV002 03/02 A3022 RMK AO2 VIS 1/4V4 T00280017 TSNO RVRNO
Conditions at: PAYA (YAKUTAT , AK, US) observed 1316 UTC 25 May 2019
Temperature: 2.8°C (37°F)
Dewpoint: 1.7°C (35°F) [RH = 92%]
Pressure (altimeter): 30.22 inches Hg (1023.5 mb)
Winds: calm
Visibility: 0.75 miles (1.21 km)
Ceiling: indefinite ceiling with vertical visibility of 200 feet AGL
Clouds: obscured sky
Weather: BR  (mist)

METAR text: PAYA 251304Z AUTO 00000KT 1 3/4SM BR BKN002 02/02 A3022 RMK AO2 VIS 1V5 T00220017 TSNO
Conditions at: PAYA (YAKUTAT , AK, US) observed 1304 UTC 25 May 2019
Temperature: 2.2°C (36°F)
Dewpoint: 1.7°C (35°F) [RH = 96%]
Pressure (altimeter): 30.22 inches Hg (1023.5 mb)
Winds: calm
Visibility: 1.75 miles (2.82 km)
Ceiling: 200 feet AGL
Clouds: broken clouds at 200 feet AGL
Weather: BR  (mist)

METAR text: PAYA 251300Z AUTO 00000KT 3SM BR BKN002 02/02 A3022 RMK AO2 T00220017 TSNO
Conditions at: PAYA (YAKUTAT , AK, US) observed 1300 UTC 25 May 2019
Temperature: 2.2°C (36°F)
Dewpoint: 1.7°C (35°F) [RH = 96%]
Pressure (altimeter): 30.22 inches Hg (1023.5 mb)
Winds: calm
Visibility: 3 miles ( 5 km)
Ceiling: 200 feet AGL
Clouds: broken clouds at 200 feet AGL
Weather: BR  (mist)

METAR text: PAYA 251258Z AUTO 00000KT 1 3/4SM BR BKN002 02/02 A3022 RMK AO2 VIS 1/2V5 T00220017 TSNO
Conditions at: PAYA (YAKUTAT , AK, US) observed 1258 UTC 25 May 2019
Temperature: 2.2°C (36°F)
Dewpoint: 1.7°C (35°F) [RH = 96%]
Pressure (altimeter): 30.22 inches Hg (1023.5 mb)
Winds: calm
Visibility: 1.75 miles (2.82 km)
Ceiling: 200 feet AGL
Clouds: broken clouds at 200 feet AGL
Weather: BR  (mist)

Forecast for: PAYA (YAKUTAT , AK, US)
Text: PAYA 251256Z 2513/2612 00000KT 3SM BCFG SCT005
Forecast period: 1300 to 1600 UTC 25 May 2019
Forecast type: FROM: standard forecast or significant change
Winds: calm
Visibility: 3 miles (5 km)
Ceiling: at least 12,000 feet AGL
Clouds: scattered clouds at 500 feet AGL
Weather: BCFG  (patches of fog)
Text: TEMPO 2513/2515 1SM BR VV003
Forecast period: 1300 to 1500 UTC 25 May 2019
Forecast type: TEMPORARY: The following changes expected for less than half the time period
Visibility: 1.00 miles (1.61 km)
Ceiling: indefinite ceiling with vertical visibility of 300 feet AGL
Clouds: obscured sky
Weather: BR  (mist)
Text: FM251600 25005KT P6SM FEW010
Forecast period: 1600 UTC 25 May 2019 to 0800 UTC 26 May 2019
Forecast type: FROM: standard forecast or significant change
Winds: from the WSW (250 degrees) at 6 MPH (5 knots; 2.6 m/s)
Visibility: 6 or more miles 10+ km)
Ceiling: at least 12,000 feet AGL
Clouds: few clouds at 1000 feet AGL
Weather: no significant weather forecast for this period
Text: FM260800 00000KT P6SM BKN020 OVC120 AMD LTD TO CLD VIS AND WIND
Forecast period: 0800 to 1200 UTC 26 May 2019
Forecast type: FROM: standard forecast or significant change
Winds: calm
Visibility: 6 or more miles 10+ km)
Ceiling: 2000 feet AGL
Clouds: broken clouds at 2000 feet AGL
overcast cloud deck at 12000 feet AGL
Weather: no significant weather forecast for this period